Dunnville, Canada
Current Conditions -  °F | °C
As of 7:00 AM on Thursday 27 Nov 2014 (Local Time) from CYHM Reporting Station
Light Snow Light Snow  
Wind Chill: 28°   Ceiling: 5800
Heat Index: 28°   Visibility: 15mi
Dew Point: 23°   Wind: 3mph
Humidity: 80%   Direction: 200°SSW
Pressure: 30.05"   Gusts: NA
Location:  42.9°N, 79.62°W
Report Text: CYHM 271200Z 20003KT 15SM -SN BKN058 OVC062 M02/M05 A3005 RMK SC5SC3 SLP187
Loading
Personal Weather Stations






























Interactive Weather Map New forecast layout! Learn more

10-Day Weather Forecast

Advertisements
Track Severe Weather on mobile